Monterey Peninsula Airport Monterey US
ICAO: KMRY
IATA: MRY
Category: Medium
Scheduled Services: Yes

Elevation: 257 ft
TransAlt. 18000 ft.

Airport Communications:
NORCAL APP/DEP:127.15
ATIS:119.25
CLNC DEL:135.45
CTAF:118.4
GND:121.9
TWR:118.4
UNICOM:122.95

KMRY Zoom In..

Runways:

(A) RW 10L length 3513 ft width 60 ft
LOC 110.70 / hdg 98

(B) RW 10R length 7616 ft width 150 ft
ILS 110.70 / hdg 98

(C) RW 28L length 7616 ft width 150 ft
LOC 110.70 / hdg 278

(D) RW 28R length 3513 ft width 60 ft
LOC 110.70 / hdg 278

Location; KMRY
Day. 24 / Time. 01.54 Zulu
* Altimeter: 30.19
* Temperature: 12° c. 53.6°f.
* Wind from: 150° Speed 03 kn.
Dewpoint: 09° c.
Visibility: 10 Statute Miles.
Clouds: Clear (automated report).

KMRY 240154Z 15003KT 10SM CLR 12/09 A3019 RMK AO2 SLP238 T01170089


Wind From 150°
Speed 03 kn.

YouTube Music Video
 
jpsmedia.com for Web Design  worldairports.se 2018   terms of use